sensor_id;sensor_type;location;lat;lon;timestamp;pressure;altitude;pressure_sealevel;temperature;humidity
10348;BME280;5220;43.192;23.284;2023-04-19T00:01:09;96680.81;;;11.49;100.00
10348;BME280;5220;43.192;23.284;2023-04-19T00:03:36;96683.25;;;11.50;100.00
10348;BME280;5220;43.192;23.284;2023-04-19T00:06:05;96684.94;;;11.51;100.00
10348;BME280;5220;43.192;23.284;2023-04-19T00:08:32;96675.25;;;11.42;100.00
10348;BME280;5220;43.192;23.284;2023-04-19T00:10:59;96680.06;;;11.47;100.00
10348;BME280;5220;43.192;23.284;2023-04-19T00:13:26;96683.88;;;11.43;100.00
10348;BME280;5220;43.192;23.284;2023-04-19T00:15:52;96686.41;;;11.33;100.00
10348;BME280;5220;43.192;23.284;2023-04-19T00:18:19;96685.44;;;11.45;100.00
10348;BME280;5220;43.192;23.284;2023-04-19T00:20:46;96684.78;;;11.53;100.00
10348;BME280;5220;43.192;23.284;2023-04-19T00:23:14;96682.91;;;11.55;100.00
10348;BME280;5220;43.192;23.284;2023-04-19T00:25:41;96676.47;;;11.59;100.00
10348;BME280;5220;43.192;23.284;2023-04-19T00:28:08;96672.16;;;11.48;100.00
10348;BME280;5220;43.192;23.284;2023-04-19T00:30:34;96679.81;;;11.50;100.00
10348;BME280;5220;43.192;23.284;2023-04-19T00:33:01;96679.81;;;11.50;100.00
10348;BME280;5220;43.192;23.284;2023-04-19T00:35:28;96675.69;;;11.47;100.00
10348;BME280;5220;43.192;23.284;2023-04-19T00:37:54;96672.16;;;11.48;100.00
10348;BME280;5220;43.192;23.284;2023-04-19T00:40:23;96683.16;;;11.52;100.00
10348;BME280;5220;43.192;23.284;2023-04-19T00:42:49;96675.34;;;11.52;100.00
10348;BME280;5220;43.192;23.284;2023-04-19T00:45:16;96683.84;;;11.54;100.00
10348;BME280;5220;43.192;23.284;2023-04-19T00:47:43;96681.09;;;11.55;100.00
10348;BME280;5220;43.192;23.284;2023-04-19T00:50:11;96680.41;;;11.53;100.00
10348;BME280;5220;43.192;23.284;2023-04-19T00:52:38;96677.38;;;11.48;100.00
10348;BME280;5220;43.192;23.284;2023-04-19T00:55:06;96669.31;;;11.51;100.00
10348;BME280;5220;43.192;23.284;2023-04-19T00:57:35;96669.75;;;11.56;100.00
10348;BME280;5220;43.192;23.284;2023-04-19T01:00:03;96679.34;;;11.56;100.00
10348;BME280;5220;43.192;23.284;2023-04-19T01:02:33;96668.72;;;11.48;100.00
10348;BME280;5220;43.192;23.284;2023-04-19T01:05:00;96668.47;;;11.51;100.00
10348;BME280;5220;43.192;23.284;2023-04-19T01:07:27;96662.31;;;11.52;100.00
10348;BME280;5220;43.192;23.284;2023-04-19T01:09:54;96661.34;;;11.53;100.00
10348;BME280;5220;43.192;23.284;2023-04-19T01:12:21;96661.50;;;11.51;100.00
10348;BME280;5220;43.192;23.284;2023-04-19T01:14:49;96656.53;;;11.48;100.00
10348;BME280;5220;43.192;23.284;2023-04-19T01:17:17;96654.63;;;11.50;100.00
10348;BME280;5220;43.192;23.284;2023-04-19T01:19:43;96650.16;;;11.41;100.00
10348;BME280;5220;43.192;23.284;2023-04-19T01:22:15;96649.22;;;11.42;100.00
10348;BME280;5220;43.192;23.284;2023-04-19T01:24:42;96655.94;;;11.45;100.00
10348;BME280;5220;43.192;23.284;2023-04-19T01:27:09;96651.31;;;11.48;100.00
10348;BME280;5220;43.192;23.284;2023-04-19T01:29:35;96644.81;;;11.43;100.00
10348;BME280;5220;43.192;23.284;2023-04-19T01:32:02;96634.19;;;11.34;100.00
10348;BME280;5220;43.192;23.284;2023-04-19T01:34:29;96641.91;;;11.36;100.00
10348;BME280;5220;43.192;23.284;2023-04-19T01:36:56;96636.03;;;11.23;100.00
10348;BME280;5220;43.192;23.284;2023-04-19T01:39:24;96637.97;;;11.30;100.00
10348;BME280;5220;43.192;23.284;2023-04-19T01:41:51;96633.16;;;11.26;100.00
10348;BME280;5220;43.192;23.284;2023-04-19T01:44:18;96629.84;;;11.24;100.00
10348;BME280;5220;43.192;23.284;2023-04-19T01:46:45;96630.31;;;11.29;100.00
10348;BME280;5220;43.192;23.284;2023-04-19T01:49:11;96628.03;;;11.36;100.00
10348;BME280;5220;43.192;23.284;2023-04-19T01:51:38;96627.66;;;11.40;100.00
10348;BME280;5220;43.192;23.284;2023-04-19T01:54:05;96624.78;;;11.43;100.00
10348;BME280;5220;43.192;23.284;2023-04-19T01:56:33;96625.53;;;11.45;100.00
10348;BME280;5220;43.192;23.284;2023-04-19T01:59:00;96618.41;;;11.47;100.00
10348;BME280;5220;43.192;23.284;2023-04-19T02:01:28;96620.88;;;11.49;100.00
10348;BME280;5220;43.192;23.284;2023-04-19T02:03:55;96615.78;;;11.47;100.00
10348;BME280;5220;43.192;23.284;2023-04-19T02:06:21;96617.56;;;11.47;100.00
10348;BME280;5220;43.192;23.284;2023-04-19T02:08:48;96613.88;;;11.49;100.00
10348;BME280;5220;43.192;23.284;2023-04-19T02:11:15;96615.69;;;11.49;100.00
10348;BME280;5220;43.192;23.284;2023-04-19T02:13:43;96618.16;;;11.50;100.00
10348;BME280;5220;43.192;23.284;2023-04-19T02:16:10;96608.56;;;11.51;100.00
10348;BME280;5220;43.192;23.284;2023-04-19T02:18:36;96611.03;;;11.52;100.00
10348;BME280;5220;43.192;23.284;2023-04-19T02:21:05;96613.75;;;11.51;100.00
10348;BME280;5220;43.192;23.284;2023-04-19T02:23:32;96611.16;;;11.51;100.00
10348;BME280;5220;43.192;23.284;2023-04-19T02:25:59;96607.63;;;11.52;100.00
10348;BME280;5220;43.192;23.284;2023-04-19T02:28:27;96612.69;;;11.53;100.00
10348;BME280;5220;43.192;23.284;2023-04-19T02:30:55;96613.50;;;11.54;100.00
10348;BME280;5220;43.192;23.284;2023-04-19T02:33:22;96602.16;;;11.55;100.00
10348;BME280;5220;43.192;23.284;2023-04-19T02:35:49;96609.00;;;11.56;100.00
10348;BME280;5220;43.192;23.284;2023-04-19T02:38:15;96605.56;;;11.55;100.00
10348;BME280;5220;43.192;23.284;2023-04-19T02:40:42;96609.00;;;11.56;100.00
10348;BME280;5220;43.192;23.284;2023-04-19T02:43:09;96601.44;;;11.53;100.00
10348;BME280;5220;43.192;23.284;2023-04-19T02:45:35;96609.00;;;11.56;100.00
10348;BME280;5220;43.192;23.284;2023-04-19T02:48:04;96607.22;;;11.56;100.00
10348;BME280;5220;43.192;23.284;2023-04-19T02:50:31;96596.94;;;11.55;100.00
10348;BME280;5220;43.192;23.284;2023-04-19T02:52:57;96599.41;;;11.56;100.00
10348;BME280;5220;43.192;23.284;2023-04-19T02:55:24;96594.88;;;11.58;100.00
10348;BME280;5220;43.192;23.284;2023-04-19T02:57:51;96600.91;;;11.59;100.00
10348;BME280;5220;43.192;23.284;2023-04-19T03:00:18;96601.06;;;11.57;100.00
10348;BME280;5220;43.192;23.284;2023-04-19T03:02:44;96600.22;;;11.57;100.00
10348;BME280;5220;43.192;23.284;2023-04-19T03:05:12;96599.53;;;11.55;100.00
10348;BME280;5220;43.192;23.284;2023-04-19T03:07:39;96585.81;;;11.53;100.00
10348;BME280;5220;43.192;23.284;2023-04-19T03:10:07;96585.69;;;11.54;100.00
10348;BME280;5220;43.192;23.284;2023-04-19T03:12:34;96590.91;;;11.54;100.00
10348;BME280;5220;43.192;23.284;2023-04-19T03:15:01;96597.75;;;11.55;100.00
10348;BME280;5220;43.192;23.284;2023-04-19T03:17:27;96588.91;;;11.47;100.00
10348;BME280;5220;43.192;23.284;2023-04-19T03:19:54;96595.91;;;11.46;100.00
10348;BME280;5220;43.192;23.284;2023-04-19T03:22:23;96591.41;;;11.48;100.00
10348;BME280;5220;43.192;23.284;2023-04-19T03:24:49;96588.34;;;11.43;100.00
10348;BME280;5220;43.192;23.284;2023-04-19T03:27:16;96589.59;;;11.28;100.00
10348;BME280;5220;43.192;23.284;2023-04-19T03:29:43;96590.06;;;11.33;100.00
10348;BME280;5220;43.192;23.284;2023-04-19T03:32:09;96588.75;;;11.27;100.00
10348;BME280;5220;43.192;23.284;2023-04-19T03:34:36;96590.75;;;11.35;100.00
10348;BME280;5220;43.192;23.284;2023-04-19T03:37:03;96590.34;;;11.40;100.00
10348;BME280;5220;43.192;23.284;2023-04-19T03:39:31;96591.91;;;11.42;100.00
10348;BME280;5220;43.192;23.284;2023-04-19T03:41:59;96587.41;;;11.44;100.00
10348;BME280;5220;43.192;23.284;2023-04-19T03:44:25;96590.94;;;11.43;100.00
10348;BME280;5220;43.192;23.284;2023-04-19T03:46:52;96593.53;;;11.43;100.00
10348;BME280;5220;43.192;23.284;2023-04-19T03:49:19;96594.00;;;11.48;100.00
10348;BME280;5220;43.192;23.284;2023-04-19T03:51:45;96593.03;;;11.49;100.00
10348;BME280;5220;43.192;23.284;2023-04-19T03:54:12;96588.91;;;11.47;100.00
10348;BME280;5220;43.192;23.284;2023-04-19T03:56:40;96590.56;;;11.48;100.00
10348;BME280;5220;43.192;23.284;2023-04-19T03:59:08;96595.63;;;11.49;100.00
10348;BME280;5220;43.192;23.284;2023-04-19T04:01:36;96582.38;;;11.52;100.00
10348;BME280;5220;43.192;23.284;2023-04-19T04:04:06;96587.47;;;11.54;100.00
10348;BME280;5220;43.192;23.284;2023-04-19T04:06:33;96586.78;;;11.52;100.00
10348;BME280;5220;43.192;23.284;2023-04-19T04:08:59;96589.25;;;11.53;100.00
10348;BME280;5220;43.192;23.284;2023-04-19T04:11:27;96590.91;;;11.54;100.00
10348;BME280;5220;43.192;23.284;2023-04-19T04:13:55;96586.38;;;11.56;100.00
10348;BME280;5220;43.192;23.284;2023-04-19T04:16:22;96588.81;;;11.48;100.00
10348;BME280;5220;43.192;23.284;2023-04-19T04:18:49;96596.41;;;11.40;100.00
10348;BME280;5220;43.192;23.284;2023-04-19T04:21:15;96596.72;;;11.47;100.00
10348;BME280;5220;43.192;23.284;2023-04-19T04:23:42;96601.56;;;11.51;100.00
10348;BME280;5220;43.192;23.284;2023-04-19T04:26:09;96590.44;;;11.49;100.00
10348;BME280;5220;43.192;23.284;2023-04-19T04:28:38;96594.94;;;11.47;100.00
10348;BME280;5220;43.192;23.284;2023-04-19T04:31:06;96602.50;;;11.50;100.00
10348;BME280;5220;43.192;23.284;2023-04-19T04:33:34;96594.69;;;11.50;100.00
10348;BME280;5220;43.192;23.284;2023-04-19T04:36:00;96597.88;;;11.54;100.00
10348;BME280;5220;43.192;23.284;2023-04-19T04:38:28;96597.31;;;11.50;100.00
10348;BME280;5220;43.192;23.284;2023-04-19T04:40:55;96594.09;;;11.58;100.00
10348;BME280;5220;43.192;23.284;2023-04-19T04:43:24;96593.94;;;11.59;100.00
10348;BME280;5220;43.192;23.284;2023-04-19T04:45:53;96589.41;;;11.61;100.00
10348;BME280;5220;43.192;23.284;2023-04-19T04:48:23;96596.72;;;11.47;100.00
10348;BME280;5220;43.192;23.284;2023-04-19T04:50:50;96600.09;;;11.58;100.00
10348;BME280;5220;43.192;23.284;2023-04-19T04:53:17;96590.81;;;11.65;100.00
10348;BME280;5220;43.192;23.284;2023-04-19T04:55:44;96590.72;;;11.67;100.00
10348;BME280;5220;43.192;23.284;2023-04-19T04:58:11;96603.13;;;11.74;100.00
10348;BME280;5220;43.192;23.284;2023-04-19T05:00:37;96597.91;;;11.74;100.00
10348;BME280;5220;43.192;23.284;2023-04-19T05:03:04;96596.53;;;11.70;100.00
10348;BME280;5220;43.192;23.284;2023-04-19T05:05:33;96597.44;;;11.69;100.00
10348;BME280;5220;43.192;23.284;2023-04-19T05:07:59;96606.44;;;11.76;100.00
10348;BME280;5220;43.192;23.284;2023-04-19T05:10:26;96602.19;;;11.75;100.00
10348;BME280;5220;43.192;23.284;2023-04-19T05:12:53;96604.09;;;11.73;100.00
10348;BME280;5220;43.192;23.284;2023-04-19T05:15:20;96602.28;;;11.74;100.00
10348;BME280;5220;43.192;23.284;2023-04-19T05:17:47;96603.44;;;11.81;100.00
10348;BME280;5220;43.192;23.284;2023-04-19T05:20:14;96606.75;;;11.83;100.00
10348;BME280;5220;43.192;23.284;2023-04-19T05:22:42;96604.84;;;11.85;100.00
10348;BME280;5220;43.192;23.284;2023-04-19T05:25:09;96595.94;;;11.88;100.00
10348;BME280;5220;43.192;23.284;2023-04-19T05:27:36;96600.88;;;11.91;100.00
10348;BME280;5220;43.192;23.284;2023-04-19T05:30:04;96596.50;;;11.91;100.00
10348;BME280;5220;43.192;23.284;2023-04-19T05:32:31;96606.94;;;11.91;100.00
10348;BME280;5220;43.192;23.284;2023-04-19T05:34:58;96605.00;;;11.93;100.00
10348;BME280;5220;43.192;23.284;2023-04-19T05:37:25;96603.94;;;11.96;100.00
10348;BME280;5220;43.192;23.284;2023-04-19T05:39:53;96610.22;;;11.93;100.00
10348;BME280;5220;43.192;23.284;2023-04-19T05:42:19;96609.13;;;11.96;100.00
10348;BME280;5220;43.192;23.284;2023-04-19T05:44:46;96610.81;;;11.97;100.00
10348;BME280;5220;43.192;23.284;2023-04-19T05:47:13;96613.03;;;12.01;100.00
10348;BME280;5220;43.192;23.284;2023-04-19T05:49:41;96612.19;;;12.01;100.00
10348;BME280;5220;43.192;23.284;2023-04-19T05:52:08;96612.56;;;11.96;100.00
10348;BME280;5220;43.192;23.284;2023-04-19T05:54:35;96622.38;;;12.04;100.00
10348;BME280;5220;43.192;23.284;2023-04-19T05:57:03;96615.75;;;12.00;100.00
10348;BME280;5220;43.192;23.284;2023-04-19T05:59:30;96612.53;;;12.07;100.00
10348;BME280;5220;43.192;23.284;2023-04-19T06:01:57;96615.13;;;12.07;100.00
10348;BME280;5220;43.192;23.284;2023-04-19T06:04:23;96617.47;;;11.90;100.00
10348;BME280;5220;43.192;23.284;2023-04-19T06:06:50;96618.38;;;12.00;100.00
10348;BME280;5220;43.192;23.284;2023-04-19T06:09:17;96611.81;;;12.05;100.00
10348;BME280;5220;43.192;23.284;2023-04-19T06:11:43;96616.38;;;12.13;100.00
10348;BME280;5220;43.192;23.284;2023-04-19T06:14:12;96606.38;;;12.18;100.00
10348;BME280;5220;43.192;23.284;2023-04-19T06:16:38;96610.38;;;12.22;100.00
10348;BME280;5220;43.192;23.284;2023-04-19T06:19:05;96608.47;;;12.24;100.00
10348;BME280;5220;43.192;23.284;2023-04-19T06:21:33;96616.13;;;12.16;100.00
10348;BME280;5220;43.192;23.284;2023-04-19T06:24:00;96610.44;;;12.31;100.00
10348;BME280;5220;43.192;23.284;2023-04-19T06:26:26;96606.38;;;12.48;100.00
10348;BME280;5220;43.192;23.284;2023-04-19T06:28:53;96610.81;;;12.57;100.00
10348;BME280;5220;43.192;23.284;2023-04-19T06:31:21;96604.25;;;12.72;100.00
10348;BME280;5220;43.192;23.284;2023-04-19T06:33:48;96607.88;;;12.90;100.00
10348;BME280;5220;43.192;23.284;2023-04-19T06:36:16;96612.31;;;13.09;100.00
10348;BME280;5220;43.192;23.284;2023-04-19T06:38:43;96604.91;;;13.24;100.00
10348;BME280;5220;43.192;23.284;2023-04-19T06:41:10;96618.31;;;12.90;100.00
10348;BME280;5220;43.192;23.284;2023-04-19T06:43:37;96614.41;;;13.34;100.00
10348;BME280;5220;43.192;23.284;2023-04-19T06:46:05;96609.47;;;13.60;100.00
10348;BME280;5220;43.192;23.284;2023-04-19T06:48:33;96610.41;;;13.59;100.00
10348;BME280;5220;43.192;23.284;2023-04-19T06:51:00;96622.25;;;13.44;100.00
10348;BME280;5220;43.192;23.284;2023-04-19T06:53:27;96616.75;;;13.76;100.00
10348;BME280;5220;43.192;23.284;2023-04-19T06:55:56;96613.50;;;14.01;100.00
10348;BME280;5220;43.192;23.284;2023-04-19T06:58:24;96625.31;;;14.15;100.00
10348;BME280;5220;43.192;23.284;2023-04-19T07:00:51;96621.84;;;14.24;100.00
10348;BME280;5220;43.192;23.284;2023-04-19T07:03:17;96620.03;;;13.68;100.00
10348;BME280;5220;43.192;23.284;2023-04-19T07:05:46;96627.75;;;13.51;100.00
10348;BME280;5220;43.192;23.284;2023-04-19T07:08:12;96619.34;;;13.85;100.00
10348;BME280;5220;43.192;23.284;2023-04-19T07:10:39;96627.84;;;14.07;100.00
10348;BME280;5220;43.192;23.284;2023-04-19T07:13:08;96629.31;;;14.19;100.00
10348;BME280;5220;43.192;23.284;2023-04-19T07:15:34;96630.69;;;14.23;100.00
10348;BME280;5220;43.192;23.284;2023-04-19T07:18:01;96633.44;;;14.12;100.00
10348;BME280;5220;43.192;23.284;2023-04-19T07:20:28;96634.78;;;13.50;100.00
10348;BME280;5220;43.192;23.284;2023-04-19T07:22:57;96627.41;;;14.01;100.00
10348;BME280;5220;43.192;23.284;2023-04-19T07:25:24;96632.38;;;13.95;100.00
10348;BME280;5220;43.192;23.284;2023-04-19T07:27:51;96632.91;;;14.08;100.00
10348;BME280;5220;43.192;23.284;2023-04-19T07:30:19;96632.31;;;14.24;100.00
10348;BME280;5220;43.192;23.284;2023-04-19T07:32:45;96633.31;;;14.23;100.00
10348;BME280;5220;43.192;23.284;2023-04-19T07:35:12;96639.91;;;14.17;100.00
10348;BME280;5220;43.192;23.284;2023-04-19T07:37:39;96628.63;;;14.17;100.00
10348;BME280;5220;43.192;23.284;2023-04-19T07:40:08;96633.97;;;14.34;100.00
10348;BME280;5220;43.192;23.284;2023-04-19T07:42:35;96636.59;;;14.34;100.00
10348;BME280;5220;43.192;23.284;2023-04-19T07:45:02;96635.09;;;14.22;100.00
10348;BME280;5220;43.192;23.284;2023-04-19T07:47:30;96629.03;;;14.22;100.00
10348;BME280;5220;43.192;23.284;2023-04-19T07:49:56;96635.47;;;14.37;100.00
10348;BME280;5220;43.192;23.284;2023-04-19T07:52:23;96636.16;;;14.29;100.00
10348;BME280;5220;43.192;23.284;2023-04-19T07:54:50;96641.84;;;14.15;100.00
10348;BME280;5220;43.192;23.284;2023-04-19T07:57:18;96640.91;;;14.16;100.00
10348;BME280;5220;43.192;23.284;2023-04-19T07:59:45;96637.81;;;14.40;100.00
10348;BME280;5220;43.192;23.284;2023-04-19T08:02:12;96629.03;;;14.22;100.00
10348;BME280;5220;43.192;23.284;2023-04-19T08:04:40;96630.00;;;14.11;100.00
10348;BME280;5220;43.192;23.284;2023-04-19T08:07:07;96632.09;;;13.98;100.00
10348;BME280;5220;43.192;23.284;2023-04-19T08:09:34;96631.84;;;13.91;100.00
10348;BME280;5220;43.192;23.284;2023-04-19T08:12:02;96625.91;;;13.89;100.00
10348;BME280;5220;43.192;23.284;2023-04-19T08:14:30;96627.84;;;13.97;100.00
10348;BME280;5220;43.192;23.284;2023-04-19T08:16:57;96629.69;;;14.24;100.00
10348;BME280;5220;43.192;23.284;2023-04-19T08:19:23;96624.34;;;14.35;100.00
10348;BME280;5220;43.192;23.284;2023-04-19T08:21:50;96621.44;;;14.38;100.00
10348;BME280;5220;43.192;23.284;2023-04-19T08:24:17;96619.59;;;14.48;100.00
10348;BME280;5220;43.192;23.284;2023-04-19T08:26:43;96626.97;;;14.25;100.00
10348;BME280;5220;43.192;23.284;2023-04-19T08:29:17;96629.19;;;14.57;100.00
10348;BME280;5220;43.192;23.284;2023-04-19T08:31:46;96618.09;;;14.73;100.00
10348;BME280;5220;43.192;23.284;2023-04-19T08:34:12;96615.63;;;14.98;100.00
10348;BME280;5220;43.192;23.284;2023-04-19T08:36:39;96619.47;;;15.22;100.00
10348;BME280;5220;43.192;23.284;2023-04-19T08:39:06;96613.56;;;15.37;100.00
10348;BME280;5220;43.192;23.284;2023-04-19T08:41:33;96610.31;;;15.53;100.00
10348;BME280;5220;43.192;23.284;2023-04-19T08:44:02;96608.34;;;15.37;100.00
10348;BME280;5220;43.192;23.284;2023-04-19T08:46:29;96599.00;;;15.52;100.00
10348;BME280;5220;43.192;23.284;2023-04-19T08:48:58;96607.00;;;15.69;100.00
10348;BME280;5220;43.192;23.284;2023-04-19T08:51:27;96607.22;;;15.22;100.00
10348;BME280;5220;43.192;23.284;2023-04-19T08:53:55;96605.44;;;15.58;100.00
10348;BME280;5220;43.192;23.284;2023-04-19T08:56:24;96597.88;;;15.55;100.00
10348;BME280;5220;43.192;23.284;2023-04-19T08:58:51;96603.63;;;15.58;100.00
10348;BME280;5220;43.192;23.284;2023-04-19T09:01:17;96598.75;;;15.64;100.00
10348;BME280;5220;43.192;23.284;2023-04-19T09:03:44;96597.59;;;15.84;100.00
10348;BME280;5220;43.192;23.284;2023-04-19T09:06:13;96594.75;;;15.77;100.00
10348;BME280;5220;43.192;23.284;2023-04-19T09:08:40;96591.88;;;15.88;100.00
10348;BME280;5220;43.192;23.284;2023-04-19T09:11:07;96599.56;;;15.64;100.00
10348;BME280;5220;43.192;23.284;2023-04-19T09:13:34;96586.84;;;15.95;100.00
10348;BME280;5220;43.192;23.284;2023-04-19T09:16:03;96582.75;;;16.18;100.00
10348;BME280;5220;43.192;23.284;2023-04-19T09:18:32;96577.63;;;16.42;100.00
10348;BME280;5220;43.192;23.284;2023-04-19T09:20:59;96583.50;;;16.62;100.00
10348;BME280;5220;43.192;23.284;2023-04-19T09:23:27;96582.84;;;16.68;100.00
10348;BME280;5220;43.192;23.284;2023-04-19T09:25:55;96575.03;;;16.84;100.00
10348;BME280;5220;43.192;23.284;2023-04-19T09:28:25;96579.59;;;16.82;100.00
10348;BME280;5220;43.192;23.284;2023-04-19T09:30:52;96581.06;;;16.09;100.00
10348;BME280;5220;43.192;23.284;2023-04-19T09:33:33;96568.09;;;16.41;100.00
10348;BME280;5220;43.192;23.284;2023-04-19T09:36:01;96574.00;;;16.09;100.00
10348;BME280;5220;43.192;23.284;2023-04-19T09:38:29;96574.34;;;15.89;100.00
10348;BME280;5220;43.192;23.284;2023-04-19T09:41:05;96582.72;;;15.67;100.00
10348;BME280;5220;43.192;23.284;2023-04-19T09:43:32;96579.75;;;15.87;100.00
10348;BME280;5220;43.192;23.284;2023-04-19T09:45:59;96580.31;;;15.73;100.00
10348;BME280;5220;43.192;23.284;2023-04-19T09:48:26;96586.31;;;15.48;100.00
10348;BME280;5220;43.192;23.284;2023-04-19T09:50:54;96572.00;;;15.60;100.00
10348;BME280;5220;43.192;23.284;2023-04-19T09:53:22;96573.63;;;15.79;100.00
10348;BME280;5220;43.192;23.284;2023-04-19T09:55:51;96568.53;;;15.77;100.00
10348;BME280;5220;43.192;23.284;2023-04-19T09:58:18;96566.59;;;16.05;100.00
10348;BME280;5220;43.192;23.284;2023-04-19T10:00:46;96559.66;;;16.22;100.00
10348;BME280;5220;43.192;23.284;2023-04-19T10:03:14;96553.28;;;16.32;100.00
10348;BME280;5220;43.192;23.284;2023-04-19T10:05:42;96557.88;;;16.56;100.00
10348;BME280;5220;43.192;23.284;2023-04-19T10:08:09;96553.97;;;16.68;100.00
10348;BME280;5220;43.192;23.284;2023-04-19T10:10:38;96559.75;;;16.46;100.00
10348;BME280;5220;43.192;23.284;2023-04-19T10:13:10;96562.00;;;16.41;100.00
10348;BME280;5220;43.192;23.284;2023-04-19T10:15:37;96553.66;;;16.45;100.00
10348;BME280;5220;43.192;23.284;2023-04-19T10:18:04;96545.81;;;16.87;100.00
10348;BME280;5220;43.192;23.284;2023-04-19T10:20:38;96545.53;;;17.14;100.00
10348;BME280;5220;43.192;23.284;2023-04-19T10:23:06;96543.59;;;17.25;100.00
10348;BME280;5220;43.192;23.284;2023-04-19T10:25:35;96540.81;;;17.58;100.00
10348;BME280;5220;43.192;23.284;2023-04-19T10:28:03;96532.75;;;17.68;100.00
10348;BME280;5220;43.192;23.284;2023-04-19T10:30:31;96536.69;;;17.64;100.00
10348;BME280;5220;43.192;23.284;2023-04-19T10:32:59;96545.91;;;17.60;100.00
10348;BME280;5220;43.192;23.284;2023-04-19T10:35:34;96529.41;;;17.09;100.00
10348;BME280;5220;43.192;23.284;2023-04-19T10:38:06;96540.25;;;16.98;100.00
10348;BME280;5220;43.192;23.284;2023-04-19T10:40:56;96541.03;;;16.83;100.00
10348;BME280;5220;43.192;23.284;2023-04-19T10:43:25;96544.50;;;16.91;100.00
10348;BME280;5220;43.192;23.284;2023-04-19T10:45:54;96536.03;;;16.63;100.00
10348;BME280;5220;43.192;23.284;2023-04-19T10:48:31;96546.53;;;16.30;100.00
10348;BME280;5220;43.192;23.284;2023-04-19T10:51:00;96546.84;;;15.93;100.00
10348;BME280;5220;43.192;23.284;2023-04-19T10:53:43;96549.75;;;15.64;100.00
10348;BME280;5220;43.192;23.284;2023-04-19T10:56:10;96553.03;;;15.66;100.00
10348;BME280;5220;43.192;23.284;2023-04-19T11:01:54;96562.28;;;14.99;100.00
10348;BME280;5220;43.192;23.284;2023-04-19T11:04:23;96560.25;;;15.11;100.00
10348;BME280;5220;43.192;23.284;2023-04-19T11:07:03;96574.34;;;15.28;100.00
10348;BME280;5220;43.192;23.284;2023-04-19T11:09:32;96573.56;;;15.18;100.00
10348;BME280;5220;43.192;23.284;2023-04-19T11:12:01;96580.47;;;14.74;100.00
10348;BME280;5220;43.192;23.284;2023-04-19T11:14:34;96576.56;;;15.23;100.00
10348;BME280;5220;43.192;23.284;2023-04-19T11:17:13;96578.72;;;15.45;100.00
10348;BME280;5220;43.192;23.284;2023-04-19T11:19:42;96582.03;;;15.12;100.00
10348;BME280;5220;43.192;23.284;2023-04-19T11:22:10;96580.31;;;15.20;100.00
10348;BME280;5220;43.192;23.284;2023-04-19T11:24:37;96590.66;;;14.77;100.00
10348;BME280;5220;43.192;23.284;2023-04-19T11:27:06;96586.81;;;14.53;100.00
10348;BME280;5220;43.192;23.284;2023-04-19T11:29:33;96596.47;;;14.43;100.00
10348;BME280;5220;43.192;23.284;2023-04-19T11:32:00;96592.25;;;14.23;100.00
10348;BME280;5220;43.192;23.284;2023-04-19T11:34:28;96597.34;;;13.59;100.00
10348;BME280;5220;43.192;23.284;2023-04-19T11:36:55;96601.06;;;13.47;100.00
10348;BME280;5220;43.192;23.284;2023-04-19T11:39:21;96595.41;;;13.71;100.00
10348;BME280;5220;43.192;23.284;2023-04-19T11:41:48;96591.69;;;13.64;100.00
10348;BME280;5220;43.192;23.284;2023-04-19T11:44:16;96601.69;;;13.97;100.00
10348;BME280;5220;43.192;23.284;2023-04-19T11:46:57;96598.00;;;13.90;100.00
10348;BME280;5220;43.192;23.284;2023-04-19T11:49:25;96595.63;;;13.96;100.00
10348;BME280;5220;43.192;23.284;2023-04-19T11:51:55;96599.59;;;14.10;100.00
10348;BME280;5220;43.192;23.284;2023-04-19T11:54:22;96592.16;;;14.06;100.00
10348;BME280;5220;43.192;23.284;2023-04-19T11:56:59;96588.59;;;14.53;100.00
10348;BME280;5220;43.192;23.284;2023-04-19T11:59:27;96590.56;;;14.69;100.00
10348;BME280;5220;43.192;23.284;2023-04-19T12:01:54;96590.91;;;14.83;100.00
10348;BME280;5220;43.192;23.284;2023-04-19T12:04:21;96581.56;;;14.81;100.00
10348;BME280;5220;43.192;23.284;2023-04-19T12:06:57;96571.84;;;15.08;100.00
10348;BME280;5220;43.192;23.284;2023-04-19T12:09:24;96573.03;;;14.96;100.00
10348;BME280;5220;43.192;23.284;2023-04-19T12:11:51;96571.84;;;14.91;100.00
10348;BME280;5220;43.192;23.284;2023-04-19T12:14:20;96568.88;;;15.03;100.00
10348;BME280;5220;43.192;23.284;2023-04-19T12:17:09;96564.28;;;15.05;100.00
10348;BME280;5220;43.192;23.284;2023-04-19T12:19:40;96564.22;;;15.33;100.00
10348;BME280;5220;43.192;23.284;2023-04-19T12:22:14;96561.16;;;15.37;100.00
10348;BME280;5220;43.192;23.284;2023-04-19T12:24:41;96555.38;;;15.51;100.00
10348;BME280;5220;43.192;23.284;2023-04-19T12:27:08;96556.75;;;15.38;100.00
10348;BME280;5220;43.192;23.284;2023-04-19T12:29:36;96555.00;;;15.29;100.00
10348;BME280;5220;43.192;23.284;2023-04-19T12:32:03;96547.13;;;15.46;100.00
10348;BME280;5220;43.192;23.284;2023-04-19T12:34:30;96547.00;;;15.66;100.00
10348;BME280;5220;43.192;23.284;2023-04-19T12:36:57;96545.28;;;15.56;100.00
10348;BME280;5220;43.192;23.284;2023-04-19T12:39:25;96544.59;;;15.54;100.00
10348;BME280;5220;43.192;23.284;2023-04-19T12:41:53;96543.41;;;15.31;100.00
10348;BME280;5220;43.192;23.284;2023-04-19T12:44:20;96546.72;;;15.16;100.00
10348;BME280;5220;43.192;23.284;2023-04-19T12:46:46;96534.28;;;15.53;100.00
10348;BME280;5220;43.192;23.284;2023-04-19T12:49:13;96535.00;;;15.89;100.00
10348;BME280;5220;43.192;23.284;2023-04-19T12:51:40;96524.94;;;16.10;100.00
10348;BME280;5220;43.192;23.284;2023-04-19T12:54:07;96523.66;;;16.48;100.00
10348;BME280;5220;43.192;23.284;2023-04-19T12:56:35;96531.63;;;16.64;100.00